Terminal Aerodrome Forecast
Issued by NWS

Home | Current Version | Previous Version | Text Only | Print | Product List | Glossary On
Versions: 1 2 3 4 5 6 7 8 9 10 11 12 13 14 15 16 17 18 19 20 21 22 23 24 25 26 27 28
000
FTUS45 KPSR 162300
TAFIWA
TAF
KIWA 162337Z 1700/1724 05010KT P6SM VCSH SCT090 BKN110
     FM170300 08011KT P6SM VCSH SCT070 BKN100 BKN120
     FM170800 VRB06KT P6SM SHRA BKN060 OVC100
     FM171400 12012KT P6SM VCSH SCT040 BKN060 OVC080
      AMD LTD TO CLD VIS AND WIND 1703/1713=

USA.gov is the U.S. government's official web portal to all federal, state and local government web resources and services.